sensor_id;sensor_type;location;lat;lon;timestamp;P1;durP1;ratioP1;P2;durP2;ratioP2
15466;SDS011;7834;49.452;11.056;2022-12-11T00:01:14;22.70;;;13.77;;
15466;SDS011;7834;49.452;11.056;2022-12-11T00:03:41;23.07;;;14.37;;
15466;SDS011;7834;49.452;11.056;2022-12-11T00:06:07;22.90;;;14.57;;
15466;SDS011;7834;49.452;11.056;2022-12-11T00:08:33;25.33;;;15.10;;
15466;SDS011;7834;49.452;11.056;2022-12-11T00:11:00;24.77;;;15.00;;
15466;SDS011;7834;49.452;11.056;2022-12-11T00:13:26;22.57;;;13.80;;
15466;SDS011;7834;49.452;11.056;2022-12-11T00:15:52;24.47;;;14.97;;
15466;SDS011;7834;49.452;11.056;2022-12-11T00:18:18;23.20;;;14.53;;
15466;SDS011;7834;49.452;11.056;2022-12-11T00:20:44;24.00;;;14.73;;
15466;SDS011;7834;49.452;11.056;2022-12-11T00:23:10;24.70;;;15.47;;
15466;SDS011;7834;49.452;11.056;2022-12-11T00:25:42;22.17;;;14.47;;
15466;SDS011;7834;49.452;11.056;2022-12-11T00:28:09;26.43;;;15.43;;
15466;SDS011;7834;49.452;11.056;2022-12-11T00:30:39;24.23;;;14.83;;
15466;SDS011;7834;49.452;11.056;2022-12-11T00:33:06;25.33;;;16.03;;
15466;SDS011;7834;49.452;11.056;2022-12-11T00:35:32;24.90;;;14.27;;
15466;SDS011;7834;49.452;11.056;2022-12-11T00:37:58;22.40;;;14.83;;
15466;SDS011;7834;49.452;11.056;2022-12-11T00:40:24;24.87;;;15.33;;
15466;SDS011;7834;49.452;11.056;2022-12-11T00:42:50;24.30;;;15.07;;
15466;SDS011;7834;49.452;11.056;2022-12-11T00:45:16;25.37;;;15.77;;
15466;SDS011;7834;49.452;11.056;2022-12-11T00:47:42;24.67;;;14.90;;
15466;SDS011;7834;49.452;11.056;2022-12-11T00:50:08;25.40;;;14.83;;
15466;SDS011;7834;49.452;11.056;2022-12-11T00:52:36;22.20;;;14.77;;
15466;SDS011;7834;49.452;11.056;2022-12-11T00:55:02;23.60;;;15.10;;
15466;SDS011;7834;49.452;11.056;2022-12-11T00:57:28;25.97;;;15.97;;
15466;SDS011;7834;49.452;11.056;2022-12-11T00:59:54;24.13;;;15.33;;
15466;SDS011;7834;49.452;11.056;2022-12-11T01:02:20;25.73;;;15.53;;
15466;SDS011;7834;49.452;11.056;2022-12-11T01:04:46;25.47;;;15.53;;
15466;SDS011;7834;49.452;11.056;2022-12-11T01:07:15;24.70;;;16.07;;
15466;SDS011;7834;49.452;11.056;2022-12-11T01:09:41;24.37;;;14.93;;
15466;SDS011;7834;49.452;11.056;2022-12-11T01:12:25;28.53;;;16.20;;
15466;SDS011;7834;49.452;11.056;2022-12-11T01:14:52;25.27;;;15.97;;
15466;SDS011;7834;49.452;11.056;2022-12-11T01:17:18;24.13;;;15.57;;
15466;SDS011;7834;49.452;11.056;2022-12-11T01:19:44;24.90;;;15.70;;
15466;SDS011;7834;49.452;11.056;2022-12-11T01:22:10;25.60;;;15.30;;
15466;SDS011;7834;49.452;11.056;2022-12-11T01:24:36;26.63;;;16.50;;
15466;SDS011;7834;49.452;11.056;2022-12-11T01:27:02;26.30;;;16.10;;
15466;SDS011;7834;49.452;11.056;2022-12-11T01:29:29;25.17;;;15.57;;
15466;SDS011;7834;49.452;11.056;2022-12-11T01:31:55;28.10;;;16.17;;
15466;SDS011;7834;49.452;11.056;2022-12-11T01:34:21;22.37;;;14.40;;
15466;SDS011;7834;49.452;11.056;2022-12-11T01:36:47;25.90;;;15.50;;
15466;SDS011;7834;49.452;11.056;2022-12-11T01:39:13;28.27;;;16.90;;
15466;SDS011;7834;49.452;11.056;2022-12-11T01:41:39;25.20;;;15.80;;
15466;SDS011;7834;49.452;11.056;2022-12-11T01:46:40;26.10;;;16.40;;
15466;SDS011;7834;49.452;11.056;2022-12-11T01:49:08;26.03;;;16.20;;
15466;SDS011;7834;49.452;11.056;2022-12-11T01:51:38;28.20;;;16.53;;
15466;SDS011;7834;49.452;11.056;2022-12-11T01:54:06;29.60;;;17.07;;
15466;SDS011;7834;49.452;11.056;2022-12-11T01:56:33;27.90;;;16.87;;
15466;SDS011;7834;49.452;11.056;2022-12-11T01:59:01;30.03;;;17.83;;
15466;SDS011;7834;49.452;11.056;2022-12-11T02:01:33;28.23;;;16.83;;
15466;SDS011;7834;49.452;11.056;2022-12-11T02:03:59;29.10;;;17.03;;
15466;SDS011;7834;49.452;11.056;2022-12-11T02:06:36;29.47;;;17.97;;
15466;SDS011;7834;49.452;11.056;2022-12-11T02:09:04;25.90;;;17.17;;
15466;SDS011;7834;49.452;11.056;2022-12-11T02:11:34;27.23;;;17.07;;
15466;SDS011;7834;49.452;11.056;2022-12-11T02:14:06;28.47;;;17.33;;
15466;SDS011;7834;49.452;11.056;2022-12-11T02:16:37;29.13;;;18.10;;
15466;SDS011;7834;49.452;11.056;2022-12-11T02:21:33;26.10;;;16.80;;
15466;SDS011;7834;49.452;11.056;2022-12-11T02:26:36;29.60;;;17.93;;
15466;SDS011;7834;49.452;11.056;2022-12-11T02:29:07;30.83;;;17.70;;
15466;SDS011;7834;49.452;11.056;2022-12-11T02:31:38;30.40;;;17.77;;
15466;SDS011;7834;49.452;11.056;2022-12-11T02:34:11;29.57;;;17.57;;
15466;SDS011;7834;49.452;11.056;2022-12-11T02:36:39;27.07;;;16.43;;
15466;SDS011;7834;49.452;11.056;2022-12-11T02:39:06;30.80;;;19.57;;
15466;SDS011;7834;49.452;11.056;2022-12-11T02:41:34;28.03;;;18.20;;
15466;SDS011;7834;49.452;11.056;2022-12-11T02:44:01;25.67;;;17.13;;
15466;SDS011;7834;49.452;11.056;2022-12-11T02:46:27;26.83;;;17.50;;
15466;SDS011;7834;49.452;11.056;2022-12-11T02:48:54;29.17;;;18.03;;
15466;SDS011;7834;49.452;11.056;2022-12-11T02:51:23;28.50;;;17.93;;
15466;SDS011;7834;49.452;11.056;2022-12-11T02:53:50;26.50;;;17.00;;
15466;SDS011;7834;49.452;11.056;2022-12-11T02:56:20;29.53;;;18.20;;
15466;SDS011;7834;49.452;11.056;2022-12-11T02:58:47;28.60;;;18.20;;
15466;SDS011;7834;49.452;11.056;2022-12-11T03:01:15;26.33;;;17.07;;
15466;SDS011;7834;49.452;11.056;2022-12-11T03:03:41;29.53;;;18.30;;
15466;SDS011;7834;49.452;11.056;2022-12-11T03:06:08;29.93;;;18.90;;
15466;SDS011;7834;49.452;11.056;2022-12-11T03:08:36;26.80;;;17.70;;
15466;SDS011;7834;49.452;11.056;2022-12-11T03:11:02;30.47;;;18.73;;
15466;SDS011;7834;49.452;11.056;2022-12-11T03:13:28;25.50;;;17.03;;
15466;SDS011;7834;49.452;11.056;2022-12-11T03:16:03;25.40;;;17.37;;
15466;SDS011;7834;49.452;11.056;2022-12-11T03:21:23;22.07;;;15.00;;
15466;SDS011;7834;49.452;11.056;2022-12-11T03:24:06;22.33;;;15.37;;
15466;SDS011;7834;49.452;11.056;2022-12-11T03:26:36;20.93;;;14.47;;
15466;SDS011;7834;49.452;11.056;2022-12-11T03:29:06;21.00;;;14.07;;
15466;SDS011;7834;49.452;11.056;2022-12-11T03:31:52;21.73;;;14.67;;
15466;SDS011;7834;49.452;11.056;2022-12-11T03:34:22;23.00;;;13.80;;
15466;SDS011;7834;49.452;11.056;2022-12-11T03:36:50;19.97;;;13.83;;
15466;SDS011;7834;49.452;11.056;2022-12-11T03:39:27;20.10;;;14.03;;
15466;SDS011;7834;49.452;11.056;2022-12-11T03:41:54;22.00;;;15.07;;
15466;SDS011;7834;49.452;11.056;2022-12-11T03:44:21;21.33;;;15.33;;
15466;SDS011;7834;49.452;11.056;2022-12-11T03:46:47;20.30;;;14.30;;
15466;SDS011;7834;49.452;11.056;2022-12-11T03:49:15;22.30;;;15.27;;
15466;SDS011;7834;49.452;11.056;2022-12-11T03:51:42;22.87;;;15.67;;
15466;SDS011;7834;49.452;11.056;2022-12-11T03:54:09;27.03;;;16.43;;
15466;SDS011;7834;49.452;11.056;2022-12-11T03:56:35;24.23;;;16.00;;
15466;SDS011;7834;49.452;11.056;2022-12-11T03:59:03;22.80;;;16.17;;
15466;SDS011;7834;49.452;11.056;2022-12-11T04:01:29;24.87;;;15.43;;
15466;SDS011;7834;49.452;11.056;2022-12-11T04:03:55;20.87;;;14.93;;
15466;SDS011;7834;49.452;11.056;2022-12-11T04:06:21;23.57;;;16.23;;
15466;SDS011;7834;49.452;11.056;2022-12-11T04:08:47;22.23;;;15.63;;
15466;SDS011;7834;49.452;11.056;2022-12-11T04:11:13;24.33;;;16.60;;
15466;SDS011;7834;49.452;11.056;2022-12-11T04:14:11;26.00;;;16.37;;
15466;SDS011;7834;49.452;11.056;2022-12-11T04:16:57;26.13;;;17.30;;
15466;SDS011;7834;49.452;11.056;2022-12-11T04:19:24;25.27;;;16.67;;
15466;SDS011;7834;49.452;11.056;2022-12-11T04:22:12;24.97;;;16.20;;
15466;SDS011;7834;49.452;11.056;2022-12-11T04:24:58;26.63;;;17.30;;
15466;SDS011;7834;49.452;11.056;2022-12-11T04:27:24;21.50;;;14.93;;
15466;SDS011;7834;49.452;11.056;2022-12-11T04:30:11;25.93;;;16.43;;
15466;SDS011;7834;49.452;11.056;2022-12-11T04:32:37;25.80;;;16.73;;
15466;SDS011;7834;49.452;11.056;2022-12-11T04:35:04;25.20;;;16.70;;
15466;SDS011;7834;49.452;11.056;2022-12-11T04:37:31;25.57;;;16.67;;
15466;SDS011;7834;49.452;11.056;2022-12-11T04:39:57;26.90;;;17.70;;
15466;SDS011;7834;49.452;11.056;2022-12-11T04:42:23;27.17;;;16.50;;
15466;SDS011;7834;49.452;11.056;2022-12-11T04:44:49;27.30;;;17.87;;
15466;SDS011;7834;49.452;11.056;2022-12-11T04:47:15;29.13;;;17.93;;
15466;SDS011;7834;49.452;11.056;2022-12-11T04:49:41;25.80;;;16.70;;
15466;SDS011;7834;49.452;11.056;2022-12-11T04:52:07;25.77;;;16.23;;
15466;SDS011;7834;49.452;11.056;2022-12-11T04:54:33;29.27;;;18.67;;
15466;SDS011;7834;49.452;11.056;2022-12-11T04:56:59;26.13;;;16.57;;
15466;SDS011;7834;49.452;11.056;2022-12-11T04:59:25;27.40;;;16.50;;
15466;SDS011;7834;49.452;11.056;2022-12-11T05:01:51;27.80;;;17.40;;
15466;SDS011;7834;49.452;11.056;2022-12-11T05:04:17;28.50;;;17.40;;
15466;SDS011;7834;49.452;11.056;2022-12-11T05:06:43;27.57;;;17.27;;
15466;SDS011;7834;49.452;11.056;2022-12-11T05:09:10;24.90;;;15.97;;
15466;SDS011;7834;49.452;11.056;2022-12-11T05:11:36;28.70;;;17.20;;
15466;SDS011;7834;49.452;11.056;2022-12-11T05:14:02;26.93;;;17.67;;
15466;SDS011;7834;49.452;11.056;2022-12-11T05:16:28;29.47;;;17.93;;
15466;SDS011;7834;49.452;11.056;2022-12-11T05:18:54;29.20;;;17.40;;
15466;SDS011;7834;49.452;11.056;2022-12-11T05:21:20;28.27;;;17.33;;
15466;SDS011;7834;49.452;11.056;2022-12-11T05:23:46;27.00;;;17.30;;
15466;SDS011;7834;49.452;11.056;2022-12-11T05:26:14;28.90;;;17.40;;
15466;SDS011;7834;49.452;11.056;2022-12-11T05:28:41;30.43;;;18.00;;
15466;SDS011;7834;49.452;11.056;2022-12-11T05:31:08;29.37;;;18.00;;
15466;SDS011;7834;49.452;11.056;2022-12-11T05:33:36;29.80;;;18.53;;
15466;SDS011;7834;49.452;11.056;2022-12-11T05:36:02;25.47;;;16.60;;
15466;SDS011;7834;49.452;11.056;2022-12-11T05:38:29;29.23;;;18.07;;
15466;SDS011;7834;49.452;11.056;2022-12-11T05:41:02;26.97;;;17.40;;
15466;SDS011;7834;49.452;11.056;2022-12-11T05:43:29;26.67;;;17.33;;
15466;SDS011;7834;49.452;11.056;2022-12-11T05:45:59;26.33;;;17.27;;
15466;SDS011;7834;49.452;11.056;2022-12-11T05:48:29;26.40;;;16.63;;
15466;SDS011;7834;49.452;11.056;2022-12-11T05:50:58;26.17;;;16.47;;
15466;SDS011;7834;49.452;11.056;2022-12-11T05:53:25;26.40;;;16.77;;
15466;SDS011;7834;49.452;11.056;2022-12-11T05:55:51;28.00;;;17.13;;
15466;SDS011;7834;49.452;11.056;2022-12-11T05:58:17;25.47;;;16.17;;
15466;SDS011;7834;49.452;11.056;2022-12-11T06:00:43;28.03;;;16.30;;
15466;SDS011;7834;49.452;11.056;2022-12-11T06:03:09;25.33;;;16.27;;
15466;SDS011;7834;49.452;11.056;2022-12-11T06:05:39;26.63;;;17.10;;
15466;SDS011;7834;49.452;11.056;2022-12-11T06:08:05;24.83;;;15.67;;
15466;SDS011;7834;49.452;11.056;2022-12-11T06:10:31;26.53;;;15.93;;
15466;SDS011;7834;49.452;11.056;2022-12-11T06:12:57;25.10;;;16.70;;
15466;SDS011;7834;49.452;11.056;2022-12-11T06:15:23;24.10;;;15.57;;
15466;SDS011;7834;49.452;11.056;2022-12-11T06:17:49;27.10;;;16.57;;
15466;SDS011;7834;49.452;11.056;2022-12-11T06:20:15;25.80;;;17.00;;
15466;SDS011;7834;49.452;11.056;2022-12-11T06:22:41;24.70;;;15.73;;
15466;SDS011;7834;49.452;11.056;2022-12-11T06:25:07;25.47;;;15.87;;
15466;SDS011;7834;49.452;11.056;2022-12-11T06:27:34;26.33;;;15.77;;
15466;SDS011;7834;49.452;11.056;2022-12-11T06:30:00;29.77;;;17.67;;
15466;SDS011;7834;49.452;11.056;2022-12-11T06:32:26;27.57;;;16.77;;
15466;SDS011;7834;49.452;11.056;2022-12-11T06:34:52;28.63;;;17.57;;
15466;SDS011;7834;49.452;11.056;2022-12-11T06:37:18;25.97;;;16.67;;
15466;SDS011;7834;49.452;11.056;2022-12-11T06:39:44;31.60;;;20.10;;
15466;SDS011;7834;49.452;11.056;2022-12-11T06:42:10;29.20;;;18.00;;
15466;SDS011;7834;49.452;11.056;2022-12-11T06:44:37;27.53;;;16.73;;
15466;SDS011;7834;49.452;11.056;2022-12-11T06:47:03;25.57;;;16.03;;
15466;SDS011;7834;49.452;11.056;2022-12-11T06:49:29;24.80;;;15.33;;
15466;SDS011;7834;49.452;11.056;2022-12-11T06:51:55;26.53;;;15.93;;
15466;SDS011;7834;49.452;11.056;2022-12-11T06:54:24;25.13;;;15.47;;
15466;SDS011;7834;49.452;11.056;2022-12-11T06:56:51;25.77;;;16.23;;
15466;SDS011;7834;49.452;11.056;2022-12-11T06:59:17;25.27;;;16.03;;
15466;SDS011;7834;49.452;11.056;2022-12-11T07:01:43;22.10;;;14.30;;
15466;SDS011;7834;49.452;11.056;2022-12-11T07:04:09;25.07;;;15.77;;
15466;SDS011;7834;49.452;11.056;2022-12-11T07:06:35;22.77;;;14.57;;
15466;SDS011;7834;49.452;11.056;2022-12-11T07:09:05;23.17;;;14.60;;
15466;SDS011;7834;49.452;11.056;2022-12-11T07:11:31;21.10;;;14.30;;
15466;SDS011;7834;49.452;11.056;2022-12-11T07:13:57;23.37;;;14.53;;
15466;SDS011;7834;49.452;11.056;2022-12-11T07:16:27;26.37;;;15.63;;
15466;SDS011;7834;49.452;11.056;2022-12-11T07:18:53;23.33;;;14.43;;
15466;SDS011;7834;49.452;11.056;2022-12-11T07:21:19;22.83;;;15.20;;
15466;SDS011;7834;49.452;11.056;2022-12-11T07:23:46;23.20;;;14.80;;
15466;SDS011;7834;49.452;11.056;2022-12-11T07:26:14;24.73;;;15.60;;
15466;SDS011;7834;49.452;11.056;2022-12-11T07:28:41;24.80;;;15.47;;
15466;SDS011;7834;49.452;11.056;2022-12-11T07:31:08;25.87;;;16.60;;
15466;SDS011;7834;49.452;11.056;2022-12-11T07:33:34;21.87;;;13.63;;
15466;SDS011;7834;49.452;11.056;2022-12-11T07:36:01;27.03;;;15.87;;
15466;SDS011;7834;49.452;11.056;2022-12-11T07:38:28;28.07;;;18.53;;
15466;SDS011;7834;49.452;11.056;2022-12-11T07:40:54;21.83;;;14.90;;
15466;SDS011;7834;49.452;11.056;2022-12-11T07:43:20;21.13;;;14.27;;
15466;SDS011;7834;49.452;11.056;2022-12-11T07:45:46;19.63;;;13.47;;
15466;SDS011;7834;49.452;11.056;2022-12-11T07:48:12;18.00;;;12.83;;
15466;SDS011;7834;49.452;11.056;2022-12-11T07:50:38;20.37;;;13.43;;
15466;SDS011;7834;49.452;11.056;2022-12-11T07:53:04;22.20;;;15.43;;
15466;SDS011;7834;49.452;11.056;2022-12-11T07:55:30;21.07;;;13.90;;
15466;SDS011;7834;49.452;11.056;2022-12-11T07:57:56;24.13;;;15.87;;
15466;SDS011;7834;49.452;11.056;2022-12-11T08:00:22;22.43;;;15.53;;
15466;SDS011;7834;49.452;11.056;2022-12-11T08:02:48;20.67;;;14.63;;
15466;SDS011;7834;49.452;11.056;2022-12-11T08:05:14;19.30;;;13.43;;
15466;SDS011;7834;49.452;11.056;2022-12-11T08:07:40;21.40;;;14.63;;
15466;SDS011;7834;49.452;11.056;2022-12-11T08:10:06;24.57;;;17.83;;
15466;SDS011;7834;49.452;11.056;2022-12-11T08:12:33;23.87;;;15.83;;
15466;SDS011;7834;49.452;11.056;2022-12-11T08:14:59;21.87;;;15.33;;
15466;SDS011;7834;49.452;11.056;2022-12-11T08:17:25;23.27;;;15.50;;
15466;SDS011;7834;49.452;11.056;2022-12-11T08:19:51;21.57;;;14.87;;
15466;SDS011;7834;49.452;11.056;2022-12-11T08:22:17;25.83;;;14.83;;
15466;SDS011;7834;49.452;11.056;2022-12-11T08:24:43;19.60;;;13.77;;
15466;SDS011;7834;49.452;11.056;2022-12-11T08:27:11;22.83;;;14.83;;
15466;SDS011;7834;49.452;11.056;2022-12-11T08:29:37;22.57;;;14.43;;
15466;SDS011;7834;49.452;11.056;2022-12-11T08:32:03;20.70;;;14.93;;
15466;SDS011;7834;49.452;11.056;2022-12-11T08:34:29;21.23;;;14.20;;
15466;SDS011;7834;49.452;11.056;2022-12-11T08:36:56;20.30;;;14.23;;
15466;SDS011;7834;49.452;11.056;2022-12-11T08:39:22;19.67;;;13.80;;
15466;SDS011;7834;49.452;11.056;2022-12-11T08:41:49;22.53;;;14.13;;
15466;SDS011;7834;49.452;11.056;2022-12-11T08:44:15;20.13;;;14.20;;
15466;SDS011;7834;49.452;11.056;2022-12-11T08:46:41;19.23;;;14.03;;
15466;SDS011;7834;49.452;11.056;2022-12-11T08:49:08;29.67;;;18.97;;
15466;SDS011;7834;49.452;11.056;2022-12-11T08:51:34;23.03;;;16.27;;
15466;SDS011;7834;49.452;11.056;2022-12-11T08:54:00;21.57;;;14.70;;
15466;SDS011;7834;49.452;11.056;2022-12-11T08:56:27;21.57;;;14.07;;
15466;SDS011;7834;49.452;11.056;2022-12-11T08:58:53;24.13;;;15.50;;
15466;SDS011;7834;49.452;11.056;2022-12-11T09:01:21;21.63;;;13.57;;
15466;SDS011;7834;49.452;11.056;2022-12-11T09:03:48;20.80;;;14.17;;
15466;SDS011;7834;49.452;11.056;2022-12-11T09:06:15;20.97;;;14.87;;
15466;SDS011;7834;49.452;11.056;2022-12-11T09:08:42;18.97;;;13.20;;
15466;SDS011;7834;49.452;11.056;2022-12-11T09:11:13;18.57;;;13.60;;
15466;SDS011;7834;49.452;11.056;2022-12-11T09:13:39;20.40;;;13.10;;
15466;SDS011;7834;49.452;11.056;2022-12-11T09:16:07;20.63;;;13.77;;
15466;SDS011;7834;49.452;11.056;2022-12-11T09:18:33;22.00;;;13.67;;
15466;SDS011;7834;49.452;11.056;2022-12-11T09:21:04;19.13;;;13.97;;
15466;SDS011;7834;49.452;11.056;2022-12-11T09:23:30;21.70;;;14.40;;
15466;SDS011;7834;49.452;11.056;2022-12-11T09:25:56;20.23;;;13.43;;
15466;SDS011;7834;49.452;11.056;2022-12-11T09:28:23;21.57;;;14.43;;
15466;SDS011;7834;49.452;11.056;2022-12-11T09:30:49;20.30;;;14.00;;
15466;SDS011;7834;49.452;11.056;2022-12-11T09:33:16;19.83;;;13.97;;
15466;SDS011;7834;49.452;11.056;2022-12-11T09:35:42;20.67;;;14.20;;
15466;SDS011;7834;49.452;11.056;2022-12-11T09:38:08;20.67;;;13.37;;
15466;SDS011;7834;49.452;11.056;2022-12-11T09:40:38;19.40;;;14.10;;
15466;SDS011;7834;49.452;11.056;2022-12-11T09:43:12;21.43;;;14.13;;
15466;SDS011;7834;49.452;11.056;2022-12-11T09:45:42;23.10;;;15.87;;
15466;SDS011;7834;49.452;11.056;2022-12-11T09:48:08;21.33;;;13.93;;
15466;SDS011;7834;49.452;11.056;2022-12-11T09:50:35;19.37;;;13.50;;
15466;SDS011;7834;49.452;11.056;2022-12-11T09:55:42;21.13;;;14.10;;
15466;SDS011;7834;49.452;11.056;2022-12-11T10:00:39;22.10;;;14.23;;
15466;SDS011;7834;49.452;11.056;2022-12-11T10:06:21;21.17;;;13.10;;
15466;SDS011;7834;49.452;11.056;2022-12-11T10:14:03;20.03;;;13.30;;
15466;SDS011;7834;49.452;11.056;2022-12-11T10:18:59;19.23;;;12.43;;
15466;SDS011;7834;49.452;11.056;2022-12-11T10:21:25;17.40;;;11.97;;
15466;SDS011;7834;49.452;11.056;2022-12-11T10:23:53;19.20;;;13.53;;
15466;SDS011;7834;49.452;11.056;2022-12-11T10:26:22;19.23;;;12.03;;
15466;SDS011;7834;49.452;11.056;2022-12-11T10:28:48;19.53;;;11.83;;
15466;SDS011;7834;49.452;11.056;2022-12-11T10:31:15;19.00;;;11.63;;
15466;SDS011;7834;49.452;11.056;2022-12-11T10:36:09;19.57;;;12.70;;
15466;SDS011;7834;49.452;11.056;2022-12-11T10:38:42;19.10;;;11.60;;
15466;SDS011;7834;49.452;11.056;2022-12-11T10:41:51;20.90;;;12.60;;
15466;SDS011;7834;49.452;11.056;2022-12-11T10:43:58;19.90;;;12.20;;
15466;SDS011;7834;49.452;11.056;2022-12-11T10:46:27;19.93;;;12.43;;
15466;SDS011;7834;49.452;11.056;2022-12-11T10:48:57;20.40;;;12.33;;
15466;SDS011;7834;49.452;11.056;2022-12-11T10:53:56;19.70;;;12.10;;
15466;SDS011;7834;49.452;11.056;2022-12-11T10:56:29;18.43;;;11.93;;
15466;SDS011;7834;49.452;11.056;2022-12-11T10:58:57;16.87;;;11.67;;
15466;SDS011;7834;49.452;11.056;2022-12-11T11:01:24;19.47;;;12.63;;
15466;SDS011;7834;49.452;11.056;2022-12-11T11:06:17;17.33;;;11.67;;
15466;SDS011;7834;49.452;11.056;2022-12-11T11:08:48;19.27;;;12.33;;
15466;SDS011;7834;49.452;11.056;2022-12-11T11:11:24;18.20;;;12.10;;
15466;SDS011;7834;49.452;11.056;2022-12-11T11:13:51;18.03;;;12.17;;
15466;SDS011;7834;49.452;11.056;2022-12-11T11:16:18;17.57;;;12.30;;
15466;SDS011;7834;49.452;11.056;2022-12-11T11:18:52;18.30;;;12.20;;
15466;SDS011;7834;49.452;11.056;2022-12-11T11:21:20;18.43;;;12.43;;
15466;SDS011;7834;49.452;11.056;2022-12-11T11:23:47;18.47;;;12.17;;
15466;SDS011;7834;49.452;11.056;2022-12-11T11:26:13;19.03;;;12.60;;
15466;SDS011;7834;49.452;11.056;2022-12-11T11:28:40;17.20;;;11.57;;
15466;SDS011;7834;49.452;11.056;2022-12-11T11:31:08;17.40;;;11.17;;
15466;SDS011;7834;49.452;11.056;2022-12-11T11:33:35;15.07;;;10.30;;
15466;SDS011;7834;49.452;11.056;2022-12-11T11:36:03;15.03;;;10.27;;
15466;SDS011;7834;49.452;11.056;2022-12-11T11:41:16;13.60;;;9.37;;
15466;SDS011;7834;49.452;11.056;2022-12-11T11:43:46;13.33;;;9.83;;
15466;SDS011;7834;49.452;11.056;2022-12-11T11:46:16;15.37;;;10.70;;
15466;SDS011;7834;49.452;11.056;2022-12-11T11:51:12;16.13;;;11.17;;
15466;SDS011;7834;49.452;11.056;2022-12-11T11:53:40;15.00;;;10.70;;
15466;SDS011;7834;49.452;11.056;2022-12-11T12:01:22;14.13;;;9.53;;
15466;SDS011;7834;49.452;11.056;2022-12-11T12:03:48;19.03;;;11.40;;
15466;SDS011;7834;49.452;11.056;2022-12-11T12:06:24;16.23;;;10.07;;
15466;SDS011;7834;49.452;11.056;2022-12-11T12:16:44;15.13;;;9.63;;
15466;SDS011;7834;49.452;11.056;2022-12-11T12:21:45;13.00;;;8.93;;
15466;SDS011;7834;49.452;11.056;2022-12-11T12:26:39;14.90;;;10.10;;
15466;SDS011;7834;49.452;11.056;2022-12-11T12:44:40;15.33;;;10.00;;
15466;SDS011;7834;49.452;11.056;2022-12-11T12:47:12;15.03;;;9.17;;
15466;SDS011;7834;49.452;11.056;2022-12-11T12:49:46;13.87;;;9.40;;
15466;SDS011;7834;49.452;11.056;2022-12-11T12:54:39;12.07;;;8.70;;
15466;SDS011;7834;49.452;11.056;2022-12-11T12:57:05;13.10;;;8.83;;
15466;SDS011;7834;49.452;11.056;2022-12-11T12:59:32;13.63;;;8.97;;
15466;SDS011;7834;49.452;11.056;2022-12-11T13:02:01;14.70;;;9.37;;
15466;SDS011;7834;49.452;11.056;2022-12-11T13:07:08;13.53;;;8.93;;
15466;SDS011;7834;49.452;11.056;2022-12-11T13:09:35;12.70;;;8.57;;
15466;SDS011;7834;49.452;11.056;2022-12-11T13:12:01;12.17;;;8.30;;
15466;SDS011;7834;49.452;11.056;2022-12-11T13:14:36;11.20;;;8.37;;
15466;SDS011;7834;49.452;11.056;2022-12-11T13:17:04;12.27;;;8.80;;
15466;SDS011;7834;49.452;11.056;2022-12-11T13:19:31;13.77;;;9.23;;
15466;SDS011;7834;49.452;11.056;2022-12-11T13:24:30;13.83;;;9.43;;
15466;SDS011;7834;49.452;11.056;2022-12-11T13:27:06;11.97;;;8.43;;
15466;SDS011;7834;49.452;11.056;2022-12-11T13:32:11;12.03;;;8.00;;
15466;SDS011;7834;49.452;11.056;2022-12-11T13:34:50;12.47;;;8.90;;
15466;SDS011;7834;49.452;11.056;2022-12-11T13:37:23;13.17;;;9.10;;
15466;SDS011;7834;49.452;11.056;2022-12-11T13:39:50;11.40;;;7.63;;
15466;SDS011;7834;49.452;11.056;2022-12-11T13:42:21;12.57;;;7.70;;
15466;SDS011;7834;49.452;11.056;2022-12-11T13:44:49;11.20;;;7.43;;
15466;SDS011;7834;49.452;11.056;2022-12-11T13:47:16;11.20;;;7.10;;
15466;SDS011;7834;49.452;11.056;2022-12-11T13:49:43;10.20;;;7.10;;
15466;SDS011;7834;49.452;11.056;2022-12-11T13:52:16;12.77;;;6.93;;
15466;SDS011;7834;49.452;11.056;2022-12-11T13:54:46;10.90;;;7.23;;
15466;SDS011;7834;49.452;11.056;2022-12-11T13:57:16;9.30;;;6.17;;
15466;SDS011;7834;49.452;11.056;2022-12-11T13:59:50;11.17;;;6.83;;
15466;SDS011;7834;49.452;11.056;2022-12-11T14:02:21;9.53;;;6.87;;
15466;SDS011;7834;49.452;11.056;2022-12-11T14:04:50;9.33;;;6.37;;
15466;SDS011;7834;49.452;11.056;2022-12-11T14:07:19;10.27;;;6.67;;
15466;SDS011;7834;49.452;11.056;2022-12-11T14:09:48;11.07;;;6.80;;
15466;SDS011;7834;49.452;11.056;2022-12-11T14:12:17;11.70;;;6.93;;
15466;SDS011;7834;49.452;11.056;2022-12-11T14:14:49;10.93;;;6.80;;
15466;SDS011;7834;49.452;11.056;2022-12-11T14:17:19;9.07;;;6.27;;
15466;SDS011;7834;49.452;11.056;2022-12-11T14:19:47;13.13;;;7.23;;
15466;SDS011;7834;49.452;11.056;2022-12-11T14:22:24;9.23;;;6.30;;
15466;SDS011;7834;49.452;11.056;2022-12-11T14:24:51;10.07;;;7.10;;
15466;SDS011;7834;49.452;11.056;2022-12-11T14:27:18;11.07;;;7.27;;
15466;SDS011;7834;49.452;11.056;2022-12-11T14:29:44;11.30;;;7.57;;
15466;SDS011;7834;49.452;11.056;2022-12-11T14:32:19;12.73;;;8.30;;
15466;SDS011;7834;49.452;11.056;2022-12-11T14:34:46;12.87;;;7.70;;
15466;SDS011;7834;49.452;11.056;2022-12-11T14:37:15;13.17;;;7.90;;
15466;SDS011;7834;49.452;11.056;2022-12-11T14:39:52;13.07;;;8.10;;
15466;SDS011;7834;49.452;11.056;2022-12-11T14:42:28;13.97;;;7.97;;
15466;SDS011;7834;49.452;11.056;2022-12-11T14:47:40;12.23;;;7.50;;
15466;SDS011;7834;49.452;11.056;2022-12-11T14:50:17;12.07;;;6.90;;
15466;SDS011;7834;49.452;11.056;2022-12-11T14:52:45;13.27;;;7.73;;
15466;SDS011;7834;49.452;11.056;2022-12-11T14:55:22;11.83;;;7.50;;
15466;SDS011;7834;49.452;11.056;2022-12-11T14:57:51;10.83;;;7.13;;
15466;SDS011;7834;49.452;11.056;2022-12-11T15:00:26;15.80;;;7.47;;
15466;SDS011;7834;49.452;11.056;2022-12-11T15:03:02;12.00;;;7.47;;
15466;SDS011;7834;49.452;11.056;2022-12-11T15:05:28;14.63;;;6.63;;
15466;SDS011;7834;49.452;11.056;2022-12-11T15:10:22;11.10;;;7.37;;
15466;SDS011;7834;49.452;11.056;2022-12-11T15:12:48;13.67;;;8.13;;
15466;SDS011;7834;49.452;11.056;2022-12-11T15:15:14;11.67;;;7.73;;
15466;SDS011;7834;49.452;11.056;2022-12-11T15:17:41;11.67;;;7.83;;
15466;SDS011;7834;49.452;11.056;2022-12-11T15:20:08;11.73;;;8.03;;
15466;SDS011;7834;49.452;11.056;2022-12-11T15:22:35;12.53;;;8.07;;
15466;SDS011;7834;49.452;11.056;2022-12-11T15:25:01;12.97;;;8.50;;
15466;SDS011;7834;49.452;11.056;2022-12-11T15:27:37;12.87;;;8.30;;
15466;SDS011;7834;49.452;11.056;2022-12-11T15:30:25;14.00;;;8.23;;
15466;SDS011;7834;49.452;11.056;2022-12-11T15:35:28;14.20;;;8.60;;
15466;SDS011;7834;49.452;11.056;2022-12-11T15:37:55;14.77;;;8.77;;
15466;SDS011;7834;49.452;11.056;2022-12-11T15:40:21;15.87;;;8.80;;
15466;SDS011;7834;49.452;11.056;2022-12-11T15:42:47;14.53;;;8.67;;
15466;SDS011;7834;49.452;11.056;2022-12-11T15:45:17;12.43;;;8.57;;
15466;SDS011;7834;49.452;11.056;2022-12-11T15:47:44;16.00;;;9.60;;
15466;SDS011;7834;49.452;11.056;2022-12-11T15:52:45;15.13;;;8.60;;
15466;SDS011;7834;49.452;11.056;2022-12-11T15:55:12;15.07;;;9.10;;
15466;SDS011;7834;49.452;11.056;2022-12-11T15:58:00;15.13;;;9.10;;
15466;SDS011;7834;49.452;11.056;2022-12-11T16:00:24;15.20;;;9.17;;
15466;SDS011;7834;49.452;11.056;2022-12-11T16:02:54;15.17;;;9.03;;